sensor_id;sensor_type;location;lat;lon;timestamp;P1;durP1;ratioP1;P2;durP2;ratioP2
20283;SDS011;10301;50.832;4.080;2024-03-25T00:02:09;10.40;;;4.77;;
20283;SDS011;10301;50.832;4.080;2024-03-25T00:04:35;13.27;;;4.53;;
20283;SDS011;10301;50.832;4.080;2024-03-25T00:07:01;10.77;;;3.73;;
20283;SDS011;10301;50.832;4.080;2024-03-25T00:09:27;9.53;;;4.13;;
20283;SDS011;10301;50.832;4.080;2024-03-25T00:11:52;10.37;;;4.07;;
20283;SDS011;10301;50.832;4.080;2024-03-25T00:14:21;8.43;;;4.33;;
20283;SDS011;10301;50.832;4.080;2024-03-25T00:16:46;9.50;;;5.50;;
20283;SDS011;10301;50.832;4.080;2024-03-25T00:19:12;10.33;;;5.07;;
20283;SDS011;10301;50.832;4.080;2024-03-25T00:21:38;8.40;;;4.77;;
20283;SDS011;10301;50.832;4.080;2024-03-25T00:24:04;9.77;;;4.10;;
20283;SDS011;10301;50.832;4.080;2024-03-25T00:26:29;9.00;;;4.70;;
20283;SDS011;10301;50.832;4.080;2024-03-25T00:28:55;9.57;;;4.93;;
20283;SDS011;10301;50.832;4.080;2024-03-25T00:31:21;7.43;;;4.10;;
20283;SDS011;10301;50.832;4.080;2024-03-25T00:33:46;10.53;;;5.10;;
20283;SDS011;10301;50.832;4.080;2024-03-25T00:36:12;8.90;;;5.33;;
20283;SDS011;10301;50.832;4.080;2024-03-25T00:38:38;12.27;;;4.70;;
20283;SDS011;10301;50.832;4.080;2024-03-25T00:41:03;10.10;;;5.57;;
20283;SDS011;10301;50.832;4.080;2024-03-25T00:43:29;11.27;;;5.70;;
20283;SDS011;10301;50.832;4.080;2024-03-25T00:45:55;10.23;;;5.17;;
20283;SDS011;10301;50.832;4.080;2024-03-25T00:48:21;17.77;;;5.57;;
20283;SDS011;10301;50.832;4.080;2024-03-25T00:50:48;12.90;;;5.00;;
20283;SDS011;10301;50.832;4.080;2024-03-25T00:53:13;12.87;;;4.97;;
20283;SDS011;10301;50.832;4.080;2024-03-25T00:55:39;13.50;;;4.77;;
20283;SDS011;10301;50.832;4.080;2024-03-25T00:58:06;11.53;;;5.23;;
20283;SDS011;10301;50.832;4.080;2024-03-25T01:00:31;12.07;;;5.07;;
20283;SDS011;10301;50.832;4.080;2024-03-25T01:02:57;10.10;;;4.77;;
20283;SDS011;10301;50.832;4.080;2024-03-25T01:05:23;11.30;;;5.50;;
20283;SDS011;10301;50.832;4.080;2024-03-25T01:07:48;9.87;;;5.40;;
20283;SDS011;10301;50.832;4.080;2024-03-25T01:10:17;9.57;;;5.33;;
20283;SDS011;10301;50.832;4.080;2024-03-25T01:12:43;10.23;;;5.30;;
20283;SDS011;10301;50.832;4.080;2024-03-25T01:15:08;10.73;;;6.57;;
20283;SDS011;10301;50.832;4.080;2024-03-25T01:17:37;8.83;;;4.60;;
20283;SDS011;10301;50.832;4.080;2024-03-25T01:20:03;12.13;;;5.00;;
20283;SDS011;10301;50.832;4.080;2024-03-25T01:22:31;12.63;;;5.33;;
20283;SDS011;10301;50.832;4.080;2024-03-25T01:24:57;12.07;;;5.70;;
20283;SDS011;10301;50.832;4.080;2024-03-25T01:27:23;12.03;;;5.37;;
20283;SDS011;10301;50.832;4.080;2024-03-25T01:29:48;16.30;;;6.33;;
20283;SDS011;10301;50.832;4.080;2024-03-25T01:32:14;16.77;;;5.93;;
20283;SDS011;10301;50.832;4.080;2024-03-25T01:34:40;12.07;;;5.93;;
20283;SDS011;10301;50.832;4.080;2024-03-25T01:37:05;15.70;;;5.83;;
20283;SDS011;10301;50.832;4.080;2024-03-25T01:39:31;13.03;;;6.60;;
20283;SDS011;10301;50.832;4.080;2024-03-25T01:41:56;13.97;;;5.57;;
20283;SDS011;10301;50.832;4.080;2024-03-25T01:44:22;14.70;;;6.43;;
20283;SDS011;10301;50.832;4.080;2024-03-25T01:46:49;17.50;;;6.33;;
20283;SDS011;10301;50.832;4.080;2024-03-25T01:49:14;15.13;;;6.23;;
20283;SDS011;10301;50.832;4.080;2024-03-25T01:51:40;20.93;;;6.37;;
20283;SDS011;10301;50.832;4.080;2024-03-25T01:54:07;14.13;;;6.90;;
20283;SDS011;10301;50.832;4.080;2024-03-25T01:56:33;18.43;;;6.80;;
20283;SDS011;10301;50.832;4.080;2024-03-25T01:59:01;19.03;;;6.30;;
20283;SDS011;10301;50.832;4.080;2024-03-25T02:01:28;12.87;;;6.77;;
20283;SDS011;10301;50.832;4.080;2024-03-25T02:03:54;20.70;;;7.47;;
20283;SDS011;10301;50.832;4.080;2024-03-25T02:06:22;16.93;;;6.80;;
20283;SDS011;10301;50.832;4.080;2024-03-25T02:08:51;16.97;;;6.90;;
20283;SDS011;10301;50.832;4.080;2024-03-25T02:11:17;15.67;;;7.20;;
20283;SDS011;10301;50.832;4.080;2024-03-25T02:13:44;16.37;;;7.10;;
20283;SDS011;10301;50.832;4.080;2024-03-25T02:16:10;14.83;;;6.57;;
20283;SDS011;10301;50.832;4.080;2024-03-25T02:18:35;17.67;;;7.07;;
20283;SDS011;10301;50.832;4.080;2024-03-25T02:21:01;19.87;;;7.20;;
20283;SDS011;10301;50.832;4.080;2024-03-25T02:23:27;18.83;;;7.37;;
20283;SDS011;10301;50.832;4.080;2024-03-25T02:25:53;15.30;;;7.27;;
20283;SDS011;10301;50.832;4.080;2024-03-25T02:28:19;17.97;;;6.63;;
20283;SDS011;10301;50.832;4.080;2024-03-25T02:30:45;20.67;;;6.60;;
20283;SDS011;10301;50.832;4.080;2024-03-25T02:33:12;17.90;;;6.87;;
20283;SDS011;10301;50.832;4.080;2024-03-25T02:35:38;13.33;;;6.70;;
20283;SDS011;10301;50.832;4.080;2024-03-25T02:38:06;19.60;;;6.87;;
20283;SDS011;10301;50.832;4.080;2024-03-25T02:40:32;19.33;;;6.77;;
20283;SDS011;10301;50.832;4.080;2024-03-25T02:42:58;22.73;;;6.97;;
20283;SDS011;10301;50.832;4.080;2024-03-25T02:45:24;21.87;;;7.00;;
20283;SDS011;10301;50.832;4.080;2024-03-25T02:47:50;18.07;;;7.37;;
20283;SDS011;10301;50.832;4.080;2024-03-25T02:50:17;15.40;;;7.20;;
20283;SDS011;10301;50.832;4.080;2024-03-25T02:52:43;18.53;;;7.07;;
20283;SDS011;10301;50.832;4.080;2024-03-25T02:55:08;23.73;;;7.80;;
20283;SDS011;10301;50.832;4.080;2024-03-25T02:57:34;19.03;;;7.63;;
20283;SDS011;10301;50.832;4.080;2024-03-25T02:59:59;23.67;;;8.57;;
20283;SDS011;10301;50.832;4.080;2024-03-25T03:02:25;25.47;;;9.00;;
20283;SDS011;10301;50.832;4.080;2024-03-25T03:04:51;27.97;;;7.93;;
20283;SDS011;10301;50.832;4.080;2024-03-25T03:07:16;22.60;;;8.73;;
20283;SDS011;10301;50.832;4.080;2024-03-25T03:09:42;23.23;;;8.53;;
20283;SDS011;10301;50.832;4.080;2024-03-25T03:12:08;28.67;;;8.57;;
20283;SDS011;10301;50.832;4.080;2024-03-25T03:14:33;29.77;;;8.80;;
20283;SDS011;10301;50.832;4.080;2024-03-25T03:16:59;23.43;;;9.83;;
20283;SDS011;10301;50.832;4.080;2024-03-25T03:19:29;27.10;;;10.50;;
20283;SDS011;10301;50.832;4.080;2024-03-25T03:21:55;26.10;;;10.97;;
20283;SDS011;10301;50.832;4.080;2024-03-25T03:24:21;19.83;;;9.80;;
20283;SDS011;10301;50.832;4.080;2024-03-25T03:26:47;28.50;;;10.93;;
20283;SDS011;10301;50.832;4.080;2024-03-25T03:29:13;28.73;;;11.77;;
20283;SDS011;10301;50.832;4.080;2024-03-25T03:31:39;35.87;;;11.33;;
20283;SDS011;10301;50.832;4.080;2024-03-25T03:34:04;33.10;;;12.63;;
20283;SDS011;10301;50.832;4.080;2024-03-25T03:36:30;30.60;;;11.90;;
20283;SDS011;10301;50.832;4.080;2024-03-25T03:38:56;27.77;;;11.93;;
20283;SDS011;10301;50.832;4.080;2024-03-25T03:41:21;35.17;;;12.43;;
20283;SDS011;10301;50.832;4.080;2024-03-25T03:43:47;35.97;;;12.27;;
20283;SDS011;10301;50.832;4.080;2024-03-25T03:46:13;34.27;;;12.53;;
20283;SDS011;10301;50.832;4.080;2024-03-25T03:48:38;36.90;;;13.43;;
20283;SDS011;10301;50.832;4.080;2024-03-25T03:51:07;31.10;;;11.87;;
20283;SDS011;10301;50.832;4.080;2024-03-25T03:53:34;30.53;;;11.70;;
20283;SDS011;10301;50.832;4.080;2024-03-25T03:56:01;36.03;;;13.10;;
20283;SDS011;10301;50.832;4.080;2024-03-25T03:58:27;38.70;;;13.13;;
20283;SDS011;10301;50.832;4.080;2024-03-25T04:00:53;32.27;;;12.60;;
20283;SDS011;10301;50.832;4.080;2024-03-25T04:03:19;38.43;;;13.30;;
20283;SDS011;10301;50.832;4.080;2024-03-25T04:05:45;36.00;;;13.40;;
20283;SDS011;10301;50.832;4.080;2024-03-25T04:08:11;38.80;;;13.30;;
20283;SDS011;10301;50.832;4.080;2024-03-25T04:10:37;38.13;;;15.93;;
20283;SDS011;10301;50.832;4.080;2024-03-25T04:13:04;49.50;;;15.53;;
20283;SDS011;10301;50.832;4.080;2024-03-25T04:15:32;48.77;;;14.97;;
20283;SDS011;10301;50.832;4.080;2024-03-25T04:18:02;45.17;;;14.60;;
20283;SDS011;10301;50.832;4.080;2024-03-25T04:20:28;41.67;;;13.47;;
20283;SDS011;10301;50.832;4.080;2024-03-25T04:22:54;37.40;;;14.03;;
20283;SDS011;10301;50.832;4.080;2024-03-25T04:25:20;40.73;;;14.37;;
20283;SDS011;10301;50.832;4.080;2024-03-25T04:27:46;46.23;;;14.57;;
20283;SDS011;10301;50.832;4.080;2024-03-25T04:30:12;45.77;;;15.67;;
20283;SDS011;10301;50.832;4.080;2024-03-25T04:32:38;48.53;;;15.23;;
20283;SDS011;10301;50.832;4.080;2024-03-25T04:35:06;45.23;;;15.47;;
20283;SDS011;10301;50.832;4.080;2024-03-25T04:37:32;44.47;;;14.70;;
20283;SDS011;10301;50.832;4.080;2024-03-25T04:39:58;38.30;;;15.57;;
20283;SDS011;10301;50.832;4.080;2024-03-25T04:42:24;45.40;;;14.53;;
20283;SDS011;10301;50.832;4.080;2024-03-25T04:44:50;42.30;;;13.77;;
20283;SDS011;10301;50.832;4.080;2024-03-25T04:47:15;41.60;;;14.43;;
20283;SDS011;10301;50.832;4.080;2024-03-25T04:49:42;41.73;;;14.63;;
20283;SDS011;10301;50.832;4.080;2024-03-25T04:52:08;50.33;;;16.07;;
20283;SDS011;10301;50.832;4.080;2024-03-25T04:54:34;42.87;;;15.20;;
20283;SDS011;10301;50.832;4.080;2024-03-25T04:56:59;43.33;;;15.97;;
20283;SDS011;10301;50.832;4.080;2024-03-25T04:59:25;40.93;;;15.03;;
20283;SDS011;10301;50.832;4.080;2024-03-25T05:01:51;44.30;;;15.20;;
20283;SDS011;10301;50.832;4.080;2024-03-25T05:04:17;51.50;;;15.03;;
20283;SDS011;10301;50.832;4.080;2024-03-25T05:06:43;39.63;;;14.13;;
20283;SDS011;10301;50.832;4.080;2024-03-25T05:09:09;41.97;;;15.20;;
20283;SDS011;10301;50.832;4.080;2024-03-25T05:11:35;41.53;;;14.33;;
20283;SDS011;10301;50.832;4.080;2024-03-25T05:14:01;46.70;;;16.27;;
20283;SDS011;10301;50.832;4.080;2024-03-25T05:16:26;45.10;;;15.07;;
20283;SDS011;10301;50.832;4.080;2024-03-25T05:18:52;42.67;;;14.33;;
20283;SDS011;10301;50.832;4.080;2024-03-25T05:21:18;38.10;;;14.73;;
20283;SDS011;10301;50.832;4.080;2024-03-25T05:23:43;40.27;;;14.27;;
20283;SDS011;10301;50.832;4.080;2024-03-25T05:26:09;43.43;;;14.60;;
20283;SDS011;10301;50.832;4.080;2024-03-25T05:28:35;41.87;;;16.40;;
20283;SDS011;10301;50.832;4.080;2024-03-25T05:31:10;40.47;;;13.20;;
20283;SDS011;10301;50.832;4.080;2024-03-25T05:33:36;45.77;;;16.43;;
20283;SDS011;10301;50.832;4.080;2024-03-25T05:36:02;45.03;;;15.37;;
20283;SDS011;10301;50.832;4.080;2024-03-25T05:38:28;52.47;;;20.90;;
20283;SDS011;10301;50.832;4.080;2024-03-25T05:40:54;35.87;;;16.63;;
20283;SDS011;10301;50.832;4.080;2024-03-25T05:43:20;43.70;;;15.03;;
20283;SDS011;10301;50.832;4.080;2024-03-25T05:45:52;49.80;;;16.70;;
20283;SDS011;10301;50.832;4.080;2024-03-25T05:48:19;39.70;;;15.97;;
20283;SDS011;10301;50.832;4.080;2024-03-25T05:50:45;56.40;;;17.80;;
20283;SDS011;10301;50.832;4.080;2024-03-25T05:53:11;36.53;;;14.20;;
20283;SDS011;10301;50.832;4.080;2024-03-25T05:55:37;48.40;;;16.80;;
20283;SDS011;10301;50.832;4.080;2024-03-25T05:58:03;45.73;;;14.03;;
20283;SDS011;10301;50.832;4.080;2024-03-25T06:00:29;41.97;;;13.90;;
20283;SDS011;10301;50.832;4.080;2024-03-25T06:02:55;37.30;;;13.60;;
20283;SDS011;10301;50.832;4.080;2024-03-25T06:05:21;47.10;;;14.63;;
20283;SDS011;10301;50.832;4.080;2024-03-25T06:07:47;42.90;;;13.13;;
20283;SDS011;10301;50.832;4.080;2024-03-25T06:10:13;45.10;;;14.00;;
20283;SDS011;10301;50.832;4.080;2024-03-25T06:12:38;40.00;;;12.97;;
20283;SDS011;10301;50.832;4.080;2024-03-25T06:15:04;38.37;;;12.97;;
20283;SDS011;10301;50.832;4.080;2024-03-25T06:17:31;43.03;;;13.20;;
20283;SDS011;10301;50.832;4.080;2024-03-25T06:19:57;41.83;;;12.80;;
20283;SDS011;10301;50.832;4.080;2024-03-25T06:22:22;32.33;;;12.10;;
20283;SDS011;10301;50.832;4.080;2024-03-25T06:24:48;34.60;;;13.27;;
20283;SDS011;10301;50.832;4.080;2024-03-25T06:27:15;34.83;;;15.53;;
20283;SDS011;10301;50.832;4.080;2024-03-25T06:29:41;38.03;;;12.13;;
20283;SDS011;10301;50.832;4.080;2024-03-25T06:32:08;35.20;;;11.93;;
20283;SDS011;10301;50.832;4.080;2024-03-25T06:34:53;43.33;;;12.77;;
20283;SDS011;10301;50.832;4.080;2024-03-25T06:37:18;38.90;;;12.00;;
20283;SDS011;10301;50.832;4.080;2024-03-25T06:39:44;42.37;;;12.30;;
20283;SDS011;10301;50.832;4.080;2024-03-25T06:42:10;41.97;;;12.50;;
20283;SDS011;10301;50.832;4.080;2024-03-25T06:44:35;35.50;;;12.77;;
20283;SDS011;10301;50.832;4.080;2024-03-25T06:47:01;42.47;;;12.07;;
20283;SDS011;10301;50.832;4.080;2024-03-25T06:49:27;29.00;;;10.33;;
20283;SDS011;10301;50.832;4.080;2024-03-25T06:51:53;41.90;;;11.87;;
20283;SDS011;10301;50.832;4.080;2024-03-25T06:54:18;36.63;;;11.00;;
20283;SDS011;10301;50.832;4.080;2024-03-25T06:56:44;37.17;;;10.90;;
20283;SDS011;10301;50.832;4.080;2024-03-25T06:59:09;38.10;;;13.67;;
20283;SDS011;10301;50.832;4.080;2024-03-25T07:01:35;41.80;;;12.67;;
20283;SDS011;10301;50.832;4.080;2024-03-25T07:04:01;39.53;;;11.60;;
20283;SDS011;10301;50.832;4.080;2024-03-25T07:06:26;38.60;;;12.17;;
20283;SDS011;10301;50.832;4.080;2024-03-25T07:08:52;44.63;;;13.60;;
20283;SDS011;10301;50.832;4.080;2024-03-25T07:11:18;41.53;;;14.57;;
20283;SDS011;10301;50.832;4.080;2024-03-25T07:13:44;35.27;;;15.03;;
20283;SDS011;10301;50.832;4.080;2024-03-25T07:16:09;40.00;;;13.90;;
20283;SDS011;10301;50.832;4.080;2024-03-25T07:18:35;41.03;;;12.77;;
20283;SDS011;10301;50.832;4.080;2024-03-25T07:21:01;37.03;;;13.90;;
20283;SDS011;10301;50.832;4.080;2024-03-25T07:23:27;35.57;;;12.30;;
20283;SDS011;10301;50.832;4.080;2024-03-25T07:25:52;40.87;;;12.70;;
20283;SDS011;10301;50.832;4.080;2024-03-25T07:28:18;44.30;;;13.23;;
20283;SDS011;10301;50.832;4.080;2024-03-25T07:30:44;30.47;;;12.23;;
20283;SDS011;10301;50.832;4.080;2024-03-25T07:33:10;34.77;;;11.73;;
20283;SDS011;10301;50.832;4.080;2024-03-25T07:35:35;34.17;;;11.60;;
20283;SDS011;10301;50.832;4.080;2024-03-25T07:38:01;33.50;;;11.40;;
20283;SDS011;10301;50.832;4.080;2024-03-25T07:40:28;30.10;;;11.37;;
20283;SDS011;10301;50.832;4.080;2024-03-25T07:42:54;40.20;;;13.03;;
20283;SDS011;10301;50.832;4.080;2024-03-25T07:45:19;34.73;;;12.33;;
20283;SDS011;10301;50.832;4.080;2024-03-25T07:47:45;33.57;;;12.13;;
20283;SDS011;10301;50.832;4.080;2024-03-25T07:50:11;33.60;;;11.67;;
20283;SDS011;10301;50.832;4.080;2024-03-25T07:52:37;31.83;;;11.17;;
20283;SDS011;10301;50.832;4.080;2024-03-25T07:55:05;22.07;;;9.83;;
20283;SDS011;10301;50.832;4.080;2024-03-25T07:57:32;32.13;;;10.87;;
20283;SDS011;10301;50.832;4.080;2024-03-25T07:59:58;27.43;;;11.53;;
20283;SDS011;10301;50.832;4.080;2024-03-25T08:02:23;26.17;;;10.53;;
20283;SDS011;10301;50.832;4.080;2024-03-25T08:04:49;28.77;;;11.20;;
20283;SDS011;10301;50.832;4.080;2024-03-25T08:07:15;27.20;;;10.50;;
20283;SDS011;10301;50.832;4.080;2024-03-25T08:09:40;28.23;;;10.60;;
20283;SDS011;10301;50.832;4.080;2024-03-25T08:12:06;22.27;;;9.83;;
20283;SDS011;10301;50.832;4.080;2024-03-25T08:14:32;27.23;;;10.30;;
20283;SDS011;10301;50.832;4.080;2024-03-25T08:16:57;27.00;;;10.30;;
20283;SDS011;10301;50.832;4.080;2024-03-25T08:19:23;23.90;;;10.10;;
20283;SDS011;10301;50.832;4.080;2024-03-25T08:21:49;26.40;;;9.23;;
20283;SDS011;10301;50.832;4.080;2024-03-25T08:24:14;29.57;;;10.37;;
20283;SDS011;10301;50.832;4.080;2024-03-25T08:26:40;28.17;;;12.23;;
20283;SDS011;10301;50.832;4.080;2024-03-25T08:29:06;26.23;;;10.53;;
20283;SDS011;10301;50.832;4.080;2024-03-25T08:31:32;27.20;;;9.30;;
20283;SDS011;10301;50.832;4.080;2024-03-25T08:33:58;29.00;;;9.73;;
20283;SDS011;10301;50.832;4.080;2024-03-25T08:36:23;27.00;;;10.17;;
20283;SDS011;10301;50.832;4.080;2024-03-25T08:38:49;23.10;;;10.37;;
20283;SDS011;10301;50.832;4.080;2024-03-25T08:41:15;25.67;;;9.33;;
20283;SDS011;10301;50.832;4.080;2024-03-25T08:43:40;21.80;;;8.93;;
20283;SDS011;10301;50.832;4.080;2024-03-25T08:46:06;21.03;;;8.80;;
20283;SDS011;10301;50.832;4.080;2024-03-25T08:48:31;23.20;;;8.73;;
20283;SDS011;10301;50.832;4.080;2024-03-25T08:50:57;22.30;;;8.87;;
20283;SDS011;10301;50.832;4.080;2024-03-25T08:53:23;29.50;;;8.68;;
20283;SDS011;10301;50.832;4.080;2024-03-25T08:55:48;21.93;;;9.67;;
20283;SDS011;10301;50.832;4.080;2024-03-25T08:58:14;24.00;;;8.67;;
20283;SDS011;10301;50.832;4.080;2024-03-25T09:00:41;16.17;;;8.00;;
20283;SDS011;10301;50.832;4.080;2024-03-25T09:03:07;21.15;;;8.02;;
20283;SDS011;10301;50.832;4.080;2024-03-25T09:05:33;21.02;;;8.73;;
20283;SDS011;10301;50.832;4.080;2024-03-25T09:07:59;25.95;;;9.20;;
20283;SDS011;10301;50.832;4.080;2024-03-25T09:10:25;18.98;;;9.32;;
20283;SDS011;10301;50.832;4.080;2024-03-25T09:13:10;20.80;;;8.93;;
20283;SDS011;10301;50.832;4.080;2024-03-25T09:15:35;21.05;;;8.75;;
20283;SDS011;10301;50.832;4.080;2024-03-25T09:18:01;21.33;;;8.57;;
20283;SDS011;10301;50.832;4.080;2024-03-25T09:20:27;22.95;;;8.85;;
20283;SDS011;10301;50.832;4.080;2024-03-25T09:22:52;27.50;;;9.88;;
20283;SDS011;10301;50.832;4.080;2024-03-25T09:25:18;18.13;;;8.20;;
20283;SDS011;10301;50.832;4.080;2024-03-25T09:27:47;23.33;;;8.50;;
20283;SDS011;10301;50.832;4.080;2024-03-25T09:30:14;18.52;;;7.65;;
20283;SDS011;10301;50.832;4.080;2024-03-25T09:32:43;20.65;;;7.40;;
20283;SDS011;10301;50.832;4.080;2024-03-25T09:35:09;21.67;;;8.48;;
20283;SDS011;10301;50.832;4.080;2024-03-25T09:37:35;21.40;;;7.43;;
20283;SDS011;10301;50.832;4.080;2024-03-25T09:40:01;18.02;;;7.22;;
20283;SDS011;10301;50.832;4.080;2024-03-25T09:42:38;20.27;;;8.52;;
20283;SDS011;10301;50.832;4.080;2024-03-25T09:45:11;18.15;;;7.72;;
20283;SDS011;10301;50.832;4.080;2024-03-25T09:47:38;24.70;;;7.78;;
20283;SDS011;10301;50.832;4.080;2024-03-25T09:50:06;22.08;;;7.82;;
20283;SDS011;10301;50.832;4.080;2024-03-25T09:52:33;17.08;;;7.70;;
20283;SDS011;10301;50.832;4.080;2024-03-25T09:54:59;24.13;;;7.80;;
20283;SDS011;10301;50.832;4.080;2024-03-25T09:57:25;22.73;;;7.90;;
20283;SDS011;10301;50.832;4.080;2024-03-25T09:59:50;18.50;;;7.32;;
20283;SDS011;10301;50.832;4.080;2024-03-25T10:02:16;24.55;;;8.65;;
20283;SDS011;10301;50.832;4.080;2024-03-25T10:04:46;18.90;;;7.22;;
20283;SDS011;10301;50.832;4.080;2024-03-25T10:07:21;16.90;;;7.45;;
20283;SDS011;10301;50.832;4.080;2024-03-25T10:09:48;16.73;;;7.30;;
20283;SDS011;10301;50.832;4.080;2024-03-25T10:12:14;19.05;;;7.53;;
20283;SDS011;10301;50.832;4.080;2024-03-25T10:14:40;14.88;;;7.38;;
20283;SDS011;10301;50.832;4.080;2024-03-25T10:17:06;16.65;;;6.55;;
20283;SDS011;10301;50.832;4.080;2024-03-25T10:19:35;14.85;;;6.38;;
20283;SDS011;10301;50.832;4.080;2024-03-25T10:22:10;16.52;;;6.65;;
20283;SDS011;10301;50.832;4.080;2024-03-25T10:24:45;18.27;;;6.43;;
20283;SDS011;10301;50.832;4.080;2024-03-25T10:27:16;17.20;;;6.60;;
20283;SDS011;10301;50.832;4.080;2024-03-25T10:29:42;12.25;;;5.97;;
20283;SDS011;10301;50.832;4.080;2024-03-25T10:32:08;17.10;;;5.90;;
20283;SDS011;10301;50.832;4.080;2024-03-25T10:34:33;16.20;;;5.70;;
20283;SDS011;10301;50.832;4.080;2024-03-25T10:36:59;14.93;;;5.90;;
20283;SDS011;10301;50.832;4.080;2024-03-25T10:39:27;13.32;;;4.50;;
20283;SDS011;10301;50.832;4.080;2024-03-25T10:41:55;20.50;;;5.70;;
20283;SDS011;10301;50.832;4.080;2024-03-25T10:44:22;13.00;;;5.65;;
20283;SDS011;10301;50.832;4.080;2024-03-25T10:46:50;10.52;;;4.50;;
20283;SDS011;10301;50.832;4.080;2024-03-25T10:52:14;12.65;;;5.30;;
20283;SDS011;10301;50.832;4.080;2024-03-25T10:54:42;15.63;;;5.35;;
20283;SDS011;10301;50.832;4.080;2024-03-25T10:57:10;12.05;;;5.57;;
20283;SDS011;10301;50.832;4.080;2024-03-25T10:59:37;13.88;;;5.18;;
20283;SDS011;10301;50.832;4.080;2024-03-25T11:02:06;11.77;;;5.43;;
20283;SDS011;10301;50.832;4.080;2024-03-25T11:04:32;12.95;;;5.10;;
20283;SDS011;10301;50.832;4.080;2024-03-25T11:07:11;10.32;;;4.45;;
20283;SDS011;10301;50.832;4.080;2024-03-25T11:09:41;10.23;;;3.95;;
20283;SDS011;10301;50.832;4.080;2024-03-25T11:12:11;12.40;;;4.30;;
20283;SDS011;10301;50.832;4.080;2024-03-25T11:14:38;10.48;;;4.60;;
20283;SDS011;10301;50.832;4.080;2024-03-25T11:17:14;9.63;;;4.00;;
20283;SDS011;10301;50.832;4.080;2024-03-25T11:19:40;13.77;;;5.32;;
20283;SDS011;10301;50.832;4.080;2024-03-25T11:22:07;8.95;;;4.38;;
20283;SDS011;10301;50.832;4.080;2024-03-25T11:24:35;10.82;;;3.90;;
20283;SDS011;10301;50.832;4.080;2024-03-25T11:27:07;9.45;;;3.78;;
20283;SDS011;10301;50.832;4.080;2024-03-25T11:29:33;9.52;;;4.85;;
20283;SDS011;10301;50.832;4.080;2024-03-25T11:32:02;9.60;;;4.18;;
20283;SDS011;10301;50.832;4.080;2024-03-25T11:34:29;7.53;;;3.38;;
20283;SDS011;10301;50.832;4.080;2024-03-25T11:36:55;10.20;;;3.20;;
20283;SDS011;10301;50.832;4.080;2024-03-25T11:39:22;8.15;;;3.30;;
20283;SDS011;10301;50.832;4.080;2024-03-25T11:41:49;4.82;;;2.42;;
20283;SDS011;10301;50.832;4.080;2024-03-25T11:44:14;7.13;;;2.30;;
20283;SDS011;10301;50.832;4.080;2024-03-25T11:46:43;6.57;;;2.42;;
20283;SDS011;10301;50.832;4.080;2024-03-25T11:49:12;7.82;;;2.85;;
20283;SDS011;10301;50.832;4.080;2024-03-25T11:51:39;7.60;;;2.35;;
20283;SDS011;10301;50.832;4.080;2024-03-25T11:54:12;6.97;;;2.75;;
20283;SDS011;10301;50.832;4.080;2024-03-25T11:56:38;7.03;;;2.40;;
20283;SDS011;10301;50.832;4.080;2024-03-25T11:59:04;5.45;;;2.10;;
20283;SDS011;10301;50.832;4.080;2024-03-25T12:01:31;8.38;;;2.60;;
20283;SDS011;10301;50.832;4.080;2024-03-25T12:03:57;5.60;;;1.98;;
20283;SDS011;10301;50.832;4.080;2024-03-25T12:06:33;7.03;;;2.00;;
20283;SDS011;10301;50.832;4.080;2024-03-25T12:08:59;6.88;;;1.90;;
20283;SDS011;10301;50.832;4.080;2024-03-25T12:11:43;5.53;;;2.10;;
20283;SDS011;10301;50.832;4.080;2024-03-25T12:14:08;5.60;;;2.22;;
20283;SDS011;10301;50.832;4.080;2024-03-25T12:16:34;7.15;;;2.55;;
20283;SDS011;10301;50.832;4.080;2024-03-25T12:19:00;4.32;;;2.00;;
20283;SDS011;10301;50.832;4.080;2024-03-25T12:21:25;6.53;;;2.30;;
20283;SDS011;10301;50.832;4.080;2024-03-25T12:23:51;6.88;;;1.92;;
20283;SDS011;10301;50.832;4.080;2024-03-25T12:26:16;5.60;;;2.50;;
20283;SDS011;10301;50.832;4.080;2024-03-25T12:28:42;6.63;;;2.42;;
20283;SDS011;10301;50.832;4.080;2024-03-25T12:31:08;11.05;;;2.53;;
20283;SDS011;10301;50.832;4.080;2024-03-25T12:33:42;5.75;;;2.05;;
20283;SDS011;10301;50.832;4.080;2024-03-25T12:36:13;6.97;;;2.08;;
20283;SDS011;10301;50.832;4.080;2024-03-25T12:38:39;6.90;;;2.28;;
20283;SDS011;10301;50.832;4.080;2024-03-25T12:41:05;6.88;;;2.60;;
20283;SDS011;10301;50.832;4.080;2024-03-25T12:43:33;9.45;;;3.00;;
20283;SDS011;10301;50.832;4.080;2024-03-25T12:46:00;8.55;;;2.42;;
20283;SDS011;10301;50.832;4.080;2024-03-25T12:48:26;6.25;;;2.08;;
20283;SDS011;10301;50.832;4.080;2024-03-25T12:50:52;5.55;;;2.50;;
20283;SDS011;10301;50.832;4.080;2024-03-25T12:53:20;6.93;;;2.40;;
20283;SDS011;10301;50.832;4.080;2024-03-25T12:55:46;5.47;;;2.20;;
20283;SDS011;10301;50.832;4.080;2024-03-25T12:58:12;5.13;;;2.30;;
20283;SDS011;10301;50.832;4.080;2024-03-25T13:00:38;6.57;;;2.47;;
20283;SDS011;10301;50.832;4.080;2024-03-25T13:03:05;6.25;;;2.30;;
20283;SDS011;10301;50.832;4.080;2024-03-25T13:05:32;4.72;;;1.83;;
20283;SDS011;10301;50.832;4.080;2024-03-25T13:07:59;6.05;;;2.45;;
20283;SDS011;10301;50.832;4.080;2024-03-25T13:10:25;6.35;;;3.08;;
20283;SDS011;10301;50.832;4.080;2024-03-25T13:12:51;8.27;;;3.10;;
20283;SDS011;10301;50.832;4.080;2024-03-25T13:15:17;6.53;;;2.30;;
20283;SDS011;10301;50.832;4.080;2024-03-25T13:17:42;7.95;;;2.63;;
20283;SDS011;10301;50.832;4.080;2024-03-25T13:20:08;8.43;;;3.75;;
20283;SDS011;10301;50.832;4.080;2024-03-25T13:22:34;8.63;;;2.67;;
20283;SDS011;10301;50.832;4.080;2024-03-25T13:25:00;6.20;;;2.17;;
20283;SDS011;10301;50.832;4.080;2024-03-25T13:27:26;6.63;;;2.15;;
20283;SDS011;10301;50.832;4.080;2024-03-25T13:29:51;7.25;;;2.20;;
20283;SDS011;10301;50.832;4.080;2024-03-25T13:32:18;6.80;;;2.67;;
20283;SDS011;10301;50.832;4.080;2024-03-25T13:34:44;10.05;;;2.53;;
20283;SDS011;10301;50.832;4.080;2024-03-25T13:37:10;9.25;;;2.78;;
20283;SDS011;10301;50.832;4.080;2024-03-25T13:39:36;7.22;;;2.55;;
20283;SDS011;10301;50.832;4.080;2024-03-25T13:42:02;5.90;;;2.40;;
20283;SDS011;10301;50.832;4.080;2024-03-25T13:44:28;5.68;;;2.45;;
20283;SDS011;10301;50.832;4.080;2024-03-25T13:46:54;8.68;;;2.38;;
20283;SDS011;10301;50.832;4.080;2024-03-25T13:49:20;6.15;;;2.20;;
20283;SDS011;10301;50.832;4.080;2024-03-25T13:51:47;7.32;;;2.28;;
20283;SDS011;10301;50.832;4.080;2024-03-25T13:54:13;6.75;;;2.60;;
20283;SDS011;10301;50.832;4.080;2024-03-25T13:56:39;9.15;;;3.08;;
20283;SDS011;10301;50.832;4.080;2024-03-25T13:59:07;8.18;;;2.38;;
20283;SDS011;10301;50.832;4.080;2024-03-25T14:01:32;5.70;;;2.40;;
20283;SDS011;10301;50.832;4.080;2024-03-25T14:03:58;5.45;;;2.65;;
20283;SDS011;10301;50.832;4.080;2024-03-25T14:06:24;5.10;;;2.53;;
20283;SDS011;10301;50.832;4.080;2024-03-25T14:08:51;6.10;;;2.28;;
20283;SDS011;10301;50.832;4.080;2024-03-25T14:11:16;5.82;;;2.25;;
20283;SDS011;10301;50.832;4.080;2024-03-25T14:13:42;7.03;;;2.67;;
20283;SDS011;10301;50.832;4.080;2024-03-25T14:16:08;7.05;;;2.65;;
20283;SDS011;10301;50.832;4.080;2024-03-25T14:18:33;7.32;;;2.20;;
20283;SDS011;10301;50.832;4.080;2024-03-25T14:20:59;6.57;;;2.60;;
20283;SDS011;10301;50.832;4.080;2024-03-25T14:23:25;5.07;;;2.58;;
20283;SDS011;10301;50.832;4.080;2024-03-25T14:25:50;6.72;;;2.38;;
20283;SDS011;10301;50.832;4.080;2024-03-25T14:28:16;4.75;;;2.58;;
20283;SDS011;10301;50.832;4.080;2024-03-25T14:30:42;5.32;;;2.28;;
20283;SDS011;10301;50.832;4.080;2024-03-25T14:33:07;5.82;;;2.13;;